sensor_id;sensor_type;location;lat;lon;timestamp;temperature;humidity
80192;SHT31;69513;51.990;5.704;2023-05-07T00:01:42;17.9;70.5
80192;SHT31;69513;51.990;5.704;2023-05-07T00:04:13;17.9;70.4
80192;SHT31;69513;51.990;5.704;2023-05-07T00:06:42;17.9;70.2
80192;SHT31;69513;51.990;5.704;2023-05-07T00:09:14;17.9;70.1
80192;SHT31;69513;51.990;5.704;2023-05-07T00:11:44;17.9;70.2
80192;SHT31;69513;51.990;5.704;2023-05-07T00:14:13;17.8;70.1
80192;SHT31;69513;51.990;5.704;2023-05-07T00:16:43;17.8;70.2
80192;SHT31;69513;51.990;5.704;2023-05-07T00:19:12;17.8;70.1
80192;SHT31;69513;51.990;5.704;2023-05-07T00:21:42;17.8;70.0
80192;SHT31;69513;51.990;5.704;2023-05-07T00:24:12;17.8;69.9
80192;SHT31;69513;51.990;5.704;2023-05-07T00:26:43;17.8;69.8
80192;SHT31;69513;51.990;5.704;2023-05-07T00:29:12;17.8;69.6
80192;SHT31;69513;51.990;5.704;2023-05-07T00:31:42;17.7;69.6
80192;SHT31;69513;51.990;5.704;2023-05-07T00:34:11;17.7;69.5
80192;SHT31;69513;51.990;5.704;2023-05-07T00:36:41;17.7;69.5
80192;SHT31;69513;51.990;5.704;2023-05-07T00:39:10;17.7;69.3
80192;SHT31;69513;51.990;5.704;2023-05-07T00:41:39;17.6;69.2
80192;SHT31;69513;51.990;5.704;2023-05-07T00:44:09;17.6;69.2
80192;SHT31;69513;51.990;5.704;2023-05-07T00:46:40;17.6;69.2
80192;SHT31;69513;51.990;5.704;2023-05-07T00:49:13;17.6;69.2
80192;SHT31;69513;51.990;5.704;2023-05-07T00:51:42;17.5;69.2
80192;SHT31;69513;51.990;5.704;2023-05-07T00:54:14;17.5;69.3
80192;SHT31;69513;51.990;5.704;2023-05-07T00:56:44;17.5;69.6
80192;SHT31;69513;51.990;5.704;2023-05-07T00:59:15;17.5;69.5
80192;SHT31;69513;51.990;5.704;2023-05-07T01:01:45;17.4;69.8
80192;SHT31;69513;51.990;5.704;2023-05-07T01:04:16;17.4;69.8
80192;SHT31;69513;51.990;5.704;2023-05-07T01:06:47;17.4;69.8
80192;SHT31;69513;51.990;5.704;2023-05-07T01:09:19;17.4;69.7
80192;SHT31;69513;51.990;5.704;2023-05-07T01:11:50;17.4;69.8
80192;SHT31;69513;51.990;5.704;2023-05-07T01:14:22;17.4;69.9
80192;SHT31;69513;51.990;5.704;2023-05-07T01:16:54;17.3;70.0
80192;SHT31;69513;51.990;5.704;2023-05-07T01:19:24;17.3;70.1
80192;SHT31;69513;51.990;5.704;2023-05-07T01:22:07;17.3;70.4
80192;SHT31;69513;51.990;5.704;2023-05-07T01:24:38;17.3;70.5
80192;SHT31;69513;51.990;5.704;2023-05-07T01:27:10;17.3;70.6
80192;SHT31;69513;51.990;5.704;2023-05-07T01:29:39;17.3;70.8
80192;SHT31;69513;51.990;5.704;2023-05-07T01:32:14;17.3;70.8
80192;SHT31;69513;51.990;5.704;2023-05-07T01:34:48;17.3;70.8
80192;SHT31;69513;51.990;5.704;2023-05-07T01:37:21;17.3;71.0
80192;SHT31;69513;51.990;5.704;2023-05-07T01:39:53;17.3;71.0
80192;SHT31;69513;51.990;5.704;2023-05-07T01:42:23;17.3;70.9
80192;SHT31;69513;51.990;5.704;2023-05-07T01:44:54;17.3;70.9
80192;SHT31;69513;51.990;5.704;2023-05-07T01:47:25;17.3;71.0
80192;SHT31;69513;51.990;5.704;2023-05-07T01:49:57;17.3;70.9
80192;SHT31;69513;51.990;5.704;2023-05-07T01:52:28;17.3;70.9
80192;SHT31;69513;51.990;5.704;2023-05-07T01:54:58;17.3;71.0
80192;SHT31;69513;51.990;5.704;2023-05-07T01:57:27;17.3;71.0
80192;SHT31;69513;51.990;5.704;2023-05-07T01:59:57;17.3;71.0
80192;SHT31;69513;51.990;5.704;2023-05-07T02:02:26;17.2;71.1
80192;SHT31;69513;51.990;5.704;2023-05-07T02:04:56;17.2;70.9
80192;SHT31;69513;51.990;5.704;2023-05-07T02:07:27;17.2;70.9
80192;SHT31;69513;51.990;5.704;2023-05-07T02:09:57;17.2;71.1
80192;SHT31;69513;51.990;5.704;2023-05-07T02:12:28;17.2;71.1
80192;SHT31;69513;51.990;5.704;2023-05-07T02:15:00;17.2;71.1
80192;SHT31;69513;51.990;5.704;2023-05-07T02:17:29;17.2;71.1
80192;SHT31;69513;51.990;5.704;2023-05-07T02:20:00;17.2;70.9
80192;SHT31;69513;51.990;5.704;2023-05-07T02:22:35;17.2;71.0
80192;SHT31;69513;51.990;5.704;2023-05-07T02:25:07;17.2;71.0
80192;SHT31;69513;51.990;5.704;2023-05-07T02:27:38;17.2;71.0
80192;SHT31;69513;51.990;5.704;2023-05-07T02:30:16;17.2;71.3
80192;SHT31;69513;51.990;5.704;2023-05-07T02:32:47;17.2;71.2
80192;SHT31;69513;51.990;5.704;2023-05-07T02:35:18;17.2;71.2
80192;SHT31;69513;51.990;5.704;2023-05-07T02:37:47;17.2;71.2
80192;SHT31;69513;51.990;5.704;2023-05-07T02:40:19;17.1;71.1
80192;SHT31;69513;51.990;5.704;2023-05-07T02:42:49;17.1;71.2
80192;SHT31;69513;51.990;5.704;2023-05-07T02:45:19;17.1;71.2
80192;SHT31;69513;51.990;5.704;2023-05-07T02:47:48;17.1;71.1
80192;SHT31;69513;51.990;5.704;2023-05-07T02:50:19;17.1;71.1
80192;SHT31;69513;51.990;5.704;2023-05-07T02:52:48;17.1;71.2
80192;SHT31;69513;51.990;5.704;2023-05-07T02:55:20;17.1;71.2
80192;SHT31;69513;51.990;5.704;2023-05-07T02:57:50;17.1;71.2
80192;SHT31;69513;51.990;5.704;2023-05-07T03:00:23;17.1;71.2
80192;SHT31;69513;51.990;5.704;2023-05-07T03:02:53;17.1;71.2
80192;SHT31;69513;51.990;5.704;2023-05-07T03:05:23;17.1;71.3
80192;SHT31;69513;51.990;5.704;2023-05-07T03:07:52;17.1;71.3
80192;SHT31;69513;51.990;5.704;2023-05-07T03:10:22;17.1;71.3
80192;SHT31;69513;51.990;5.704;2023-05-07T03:12:51;17.0;71.4
80192;SHT31;69513;51.990;5.704;2023-05-07T03:15:21;17.0;71.5
80192;SHT31;69513;51.990;5.704;2023-05-07T03:17:53;17.0;71.5
80192;SHT31;69513;51.990;5.704;2023-05-07T03:20:22;17.0;71.4
80192;SHT31;69513;51.990;5.704;2023-05-07T03:22:52;17.0;71.5
80192;SHT31;69513;51.990;5.704;2023-05-07T03:25:21;17.0;71.5
80192;SHT31;69513;51.990;5.704;2023-05-07T03:27:53;17.0;71.5
80192;SHT31;69513;51.990;5.704;2023-05-07T03:30:23;17.0;71.5
80192;SHT31;69513;51.990;5.704;2023-05-07T03:32:54;17.0;71.6
80192;SHT31;69513;51.990;5.704;2023-05-07T03:35:24;17.0;71.4
80192;SHT31;69513;51.990;5.704;2023-05-07T03:37:54;17.0;71.5
80192;SHT31;69513;51.990;5.704;2023-05-07T03:40:23;17.0;71.7
80192;SHT31;69513;51.990;5.704;2023-05-07T03:42:54;16.9;71.8
80192;SHT31;69513;51.990;5.704;2023-05-07T03:45:23;16.9;71.7
80192;SHT31;69513;51.990;5.704;2023-05-07T03:47:53;16.9;71.6
80192;SHT31;69513;51.990;5.704;2023-05-07T03:50:22;16.9;71.7
80192;SHT31;69513;51.990;5.704;2023-05-07T03:52:52;16.9;71.8
80192;SHT31;69513;51.990;5.704;2023-05-07T03:55:21;16.9;71.9
80192;SHT31;69513;51.990;5.704;2023-05-07T03:57:52;16.9;71.8
80192;SHT31;69513;51.990;5.704;2023-05-07T04:00:23;16.9;71.8
80192;SHT31;69513;51.990;5.704;2023-05-07T04:02:52;16.9;71.8
80192;SHT31;69513;51.990;5.704;2023-05-07T04:05:26;16.9;71.8
80192;SHT31;69513;51.990;5.704;2023-05-07T04:07:57;16.9;71.9
80192;SHT31;69513;51.990;5.704;2023-05-07T04:10:27;16.9;72.0
80192;SHT31;69513;51.990;5.704;2023-05-07T04:12:57;16.9;72.1
80192;SHT31;69513;51.990;5.704;2023-05-07T04:15:26;16.9;72.1
80192;SHT31;69513;51.990;5.704;2023-05-07T04:17:56;16.9;72.2
80192;SHT31;69513;51.990;5.704;2023-05-07T04:20:26;16.9;72.2
80192;SHT31;69513;51.990;5.704;2023-05-07T04:22:55;16.9;72.3
80192;SHT31;69513;51.990;5.704;2023-05-07T04:25:25;16.9;72.3
80192;SHT31;69513;51.990;5.704;2023-05-07T04:27:55;16.9;72.3
80192;SHT31;69513;51.990;5.704;2023-05-07T04:30:26;16.8;72.3
80192;SHT31;69513;51.990;5.704;2023-05-07T04:32:55;16.8;72.3
80192;SHT31;69513;51.990;5.704;2023-05-07T04:35:27;16.8;72.3
80192;SHT31;69513;51.990;5.704;2023-05-07T04:37:57;16.8;72.3
80192;SHT31;69513;51.990;5.704;2023-05-07T04:40:26;16.8;72.4
80192;SHT31;69513;51.990;5.704;2023-05-07T04:42:57;16.8;72.5
80192;SHT31;69513;51.990;5.704;2023-05-07T04:45:28;16.8;72.5
80192;SHT31;69513;51.990;5.704;2023-05-07T04:47:59;16.8;72.5
80192;SHT31;69513;51.990;5.704;2023-05-07T04:50:28;16.8;72.6
80192;SHT31;69513;51.990;5.704;2023-05-07T04:52:58;16.8;72.5
80192;SHT31;69513;51.990;5.704;2023-05-07T04:55:29;16.8;72.6
80192;SHT31;69513;51.990;5.704;2023-05-07T04:57:58;16.8;72.8
80192;SHT31;69513;51.990;5.704;2023-05-07T05:00:29;16.8;72.8
80192;SHT31;69513;51.990;5.704;2023-05-07T05:02:59;16.8;72.9
80192;SHT31;69513;51.990;5.704;2023-05-07T05:05:29;16.8;72.8
80192;SHT31;69513;51.990;5.704;2023-05-07T05:07:58;16.8;72.8
80192;SHT31;69513;51.990;5.704;2023-05-07T05:10:28;16.8;73.0
80192;SHT31;69513;51.990;5.704;2023-05-07T05:12:58;16.8;73.1
80192;SHT31;69513;51.990;5.704;2023-05-07T05:15:27;16.8;73.0
80192;SHT31;69513;51.990;5.704;2023-05-07T05:17:57;16.8;73.1
80192;SHT31;69513;51.990;5.704;2023-05-07T05:20:27;16.8;73.2
80192;SHT31;69513;51.990;5.704;2023-05-07T05:22:58;16.8;73.2
80192;SHT31;69513;51.990;5.704;2023-05-07T05:25:27;16.8;73.2
80192;SHT31;69513;51.990;5.704;2023-05-07T05:27:58;16.8;73.3
80192;SHT31;69513;51.990;5.704;2023-05-07T05:30:27;16.8;73.4
80192;SHT31;69513;51.990;5.704;2023-05-07T05:32:58;16.8;73.5
80192;SHT31;69513;51.990;5.704;2023-05-07T05:35:29;16.8;73.8
80192;SHT31;69513;51.990;5.704;2023-05-07T05:37:59;16.9;73.7
80192;SHT31;69513;51.990;5.704;2023-05-07T05:40:29;16.9;73.7
80192;SHT31;69513;51.990;5.704;2023-05-07T05:43:00;16.9;74.0
80192;SHT31;69513;51.990;5.704;2023-05-07T05:45:29;16.9;74.1
80192;SHT31;69513;51.990;5.704;2023-05-07T05:48:00;16.9;74.1
80192;SHT31;69513;51.990;5.704;2023-05-07T05:50:30;16.9;74.2
80192;SHT31;69513;51.990;5.704;2023-05-07T05:53:02;16.9;74.2
80192;SHT31;69513;51.990;5.704;2023-05-07T05:55:33;16.9;74.0
80192;SHT31;69513;51.990;5.704;2023-05-07T05:58:03;16.9;74.2
80192;SHT31;69513;51.990;5.704;2023-05-07T06:00:35;16.9;74.1
80192;SHT31;69513;51.990;5.704;2023-05-07T06:03:06;17.0;74.1
80192;SHT31;69513;51.990;5.704;2023-05-07T06:05:36;17.0;74.1
80192;SHT31;69513;51.990;5.704;2023-05-07T06:08:05;17.0;74.2
80192;SHT31;69513;51.990;5.704;2023-05-07T06:10:36;17.0;74.2
80192;SHT31;69513;51.990;5.704;2023-05-07T06:13:06;17.0;74.1
80192;SHT31;69513;51.990;5.704;2023-05-07T06:15:37;17.0;74.2
80192;SHT31;69513;51.990;5.704;2023-05-07T06:18:07;17.0;74.3
80192;SHT31;69513;51.990;5.704;2023-05-07T06:20:40;17.0;74.3
80192;SHT31;69513;51.990;5.704;2023-05-07T06:23:53;17.1;74.3
80192;SHT31;69513;51.990;5.704;2023-05-07T06:26:22;17.1;74.7
80192;SHT31;69513;51.990;5.704;2023-05-07T06:28:52;17.1;74.8
80192;SHT31;69513;51.990;5.704;2023-05-07T06:31:22;17.1;74.9
80192;SHT31;69513;51.990;5.704;2023-05-07T06:33:51;17.1;74.9
80192;SHT31;69513;51.990;5.704;2023-05-07T06:36:23;17.2;74.8
80192;SHT31;69513;51.990;5.704;2023-05-07T06:38:54;17.2;74.9
80192;SHT31;69513;51.990;5.704;2023-05-07T06:41:23;17.2;74.9
80192;SHT31;69513;51.990;5.704;2023-05-07T06:43:54;17.2;74.9
80192;SHT31;69513;51.990;5.704;2023-05-07T06:46:23;17.3;74.6
80192;SHT31;69513;51.990;5.704;2023-05-07T06:48:53;17.3;74.6
80192;SHT31;69513;51.990;5.704;2023-05-07T06:51:24;17.3;74.7
80192;SHT31;69513;51.990;5.704;2023-05-07T06:53:55;17.3;74.8
80192;SHT31;69513;51.990;5.704;2023-05-07T06:56:26;17.3;74.6
80192;SHT31;69513;51.990;5.704;2023-05-07T06:58:56;17.4;74.2
80192;SHT31;69513;51.990;5.704;2023-05-07T07:01:25;17.4;74.2
80192;SHT31;69513;51.990;5.704;2023-05-07T07:03:55;17.4;74.5
80192;SHT31;69513;51.990;5.704;2023-05-07T07:06:24;17.4;74.4
80192;SHT31;69513;51.990;5.704;2023-05-07T07:08:56;17.5;74.5
80192;SHT31;69513;51.990;5.704;2023-05-07T07:11:27;17.5;74.6
80192;SHT31;69513;51.990;5.704;2023-05-07T07:13:56;17.5;74.5
80192;SHT31;69513;51.990;5.704;2023-05-07T07:16:27;17.5;74.2
80192;SHT31;69513;51.990;5.704;2023-05-07T07:18:56;17.6;73.8
80192;SHT31;69513;51.990;5.704;2023-05-07T07:21:27;17.6;74.3
80192;SHT31;69513;51.990;5.704;2023-05-07T07:23:57;17.6;74.4
80192;SHT31;69513;51.990;5.704;2023-05-07T07:26:26;17.6;74.4
80192;SHT31;69513;51.990;5.704;2023-05-07T07:28:56;17.7;73.9
80192;SHT31;69513;51.990;5.704;2023-05-07T07:31:25;17.7;74.1
80192;SHT31;69513;51.990;5.704;2023-05-07T07:33:57;17.7;74.2
80192;SHT31;69513;51.990;5.704;2023-05-07T07:36:27;17.7;74.4
80192;SHT31;69513;51.990;5.704;2023-05-07T07:38:57;17.7;73.4
80192;SHT31;69513;51.990;5.704;2023-05-07T07:41:26;17.7;73.8
80192;SHT31;69513;51.990;5.704;2023-05-07T07:43:56;17.8;74.3
80192;SHT31;69513;51.990;5.704;2023-05-07T07:46:25;17.8;74.6
80192;SHT31;69513;51.990;5.704;2023-05-07T07:48:57;17.8;74.5
80192;SHT31;69513;51.990;5.704;2023-05-07T07:51:28;17.8;75.0
80192;SHT31;69513;51.990;5.704;2023-05-07T07:53:58;17.9;75.3
80192;SHT31;69513;51.990;5.704;2023-05-07T07:56:31;17.9;75.7
80192;SHT31;69513;51.990;5.704;2023-05-07T07:59:03;17.9;75.7
80192;SHT31;69513;51.990;5.704;2023-05-07T08:01:33;18.0;75.7
80192;SHT31;69513;51.990;5.704;2023-05-07T08:04:04;18.0;75.6
80192;SHT31;69513;51.990;5.704;2023-05-07T08:06:34;18.0;75.4
80192;SHT31;69513;51.990;5.704;2023-05-07T08:09:05;18.1;75.3
80192;SHT31;69513;51.990;5.704;2023-05-07T08:11:38;18.1;75.6
80192;SHT31;69513;51.990;5.704;2023-05-07T08:14:08;18.1;75.5
80192;SHT31;69513;51.990;5.704;2023-05-07T08:16:37;18.2;75.1
80192;SHT31;69513;51.990;5.704;2023-05-07T08:19:09;18.2;75.2
80192;SHT31;69513;51.990;5.704;2023-05-07T08:21:40;18.3;75.0
80192;SHT31;69513;51.990;5.704;2023-05-07T08:24:10;18.3;74.0
80192;SHT31;69513;51.990;5.704;2023-05-07T08:26:41;18.3;74.5
80192;SHT31;69513;51.990;5.704;2023-05-07T08:29:13;18.4;73.9
80192;SHT31;69513;51.990;5.704;2023-05-07T08:31:42;18.4;74.8
80192;SHT31;69513;51.990;5.704;2023-05-07T08:34:12;18.5;73.9
80192;SHT31;69513;51.990;5.704;2023-05-07T08:36:41;18.5;74.6
80192;SHT31;69513;51.990;5.704;2023-05-07T08:39:12;18.5;74.4
80192;SHT31;69513;51.990;5.704;2023-05-07T08:41:45;18.5;73.7
80192;SHT31;69513;51.990;5.704;2023-05-07T08:44:18;18.6;73.5
80192;SHT31;69513;51.990;5.704;2023-05-07T08:46:52;18.6;73.7
80192;SHT31;69513;51.990;5.704;2023-05-07T08:49:23;18.6;73.7
80192;SHT31;69513;51.990;5.704;2023-05-07T08:51:54;18.7;74.0
80192;SHT31;69513;51.990;5.704;2023-05-07T08:54:26;18.7;73.4
80192;SHT31;69513;51.990;5.704;2023-05-07T08:56:57;18.7;73.5
80192;SHT31;69513;51.990;5.704;2023-05-07T08:59:28;18.8;74.1
80192;SHT31;69513;51.990;5.704;2023-05-07T09:01:58;18.8;73.6
80192;SHT31;69513;51.990;5.704;2023-05-07T09:04:29;18.9;74.1
80192;SHT31;69513;51.990;5.704;2023-05-07T11:05:40;23.4;52.4
80192;SHT31;69513;51.990;5.704;2023-05-07T11:08:11;23.3;55.0
80192;SHT31;69513;51.990;5.704;2023-05-07T11:10:52;23.3;56.0
80192;SHT31;69513;51.990;5.704;2023-05-07T11:13:45;23.2;56.2
80192;SHT31;69513;51.990;5.704;2023-05-07T11:16:22;23.1;55.5
80192;SHT31;69513;51.990;5.704;2023-05-07T11:18:56;23.0;54.9
80192;SHT31;69513;51.990;5.704;2023-05-07T11:21:40;22.9;54.9
80192;SHT31;69513;51.990;5.704;2023-05-07T11:24:11;22.8;54.5
80192;SHT31;69513;51.990;5.704;2023-05-07T11:26:46;22.8;55.3
80192;SHT31;69513;51.990;5.704;2023-05-07T11:29:19;22.7;54.2
80192;SHT31;69513;51.990;5.704;2023-05-07T11:31:53;22.7;57.0
80192;SHT31;69513;51.990;5.704;2023-05-07T11:34:26;22.6;56.6
80192;SHT31;69513;51.990;5.704;2023-05-07T11:36:56;22.6;57.4
80192;SHT31;69513;51.990;5.704;2023-05-07T11:39:31;22.6;56.8
80192;SHT31;69513;51.990;5.704;2023-05-07T11:42:04;22.5;57.2
80192;SHT31;69513;51.990;5.704;2023-05-07T11:44:45;22.5;56.7
80192;SHT31;69513;51.990;5.704;2023-05-07T11:47:20;22.5;57.3
80192;SHT31;69513;51.990;5.704;2023-05-07T11:49:52;22.5;56.0
80192;SHT31;69513;51.990;5.704;2023-05-07T11:52:24;22.5;57.3
80192;SHT31;69513;51.990;5.704;2023-05-07T11:54:56;22.5;58.0
80192;SHT31;69513;51.990;5.704;2023-05-07T11:57:29;22.5;57.5
80192;SHT31;69513;51.990;5.704;2023-05-07T12:00:00;22.4;58.4
80192;SHT31;69513;51.990;5.704;2023-05-07T12:02:32;22.4;59.1
80192;SHT31;69513;51.990;5.704;2023-05-07T12:05:03;22.5;58.0
80192;SHT31;69513;51.990;5.704;2023-05-07T12:07:37;22.5;58.3
80192;SHT31;69513;51.990;5.704;2023-05-07T12:10:08;22.5;57.3
80192;SHT31;69513;51.990;5.704;2023-05-07T12:12:46;22.5;58.6
80192;SHT31;69513;51.990;5.704;2023-05-07T12:15:24;22.5;58.1
80192;SHT31;69513;51.990;5.704;2023-05-07T12:17:54;22.5;58.3
80192;SHT31;69513;51.990;5.704;2023-05-07T12:20:28;22.5;57.9
80192;SHT31;69513;51.990;5.704;2023-05-07T12:22:59;22.5;57.2
80192;SHT31;69513;51.990;5.704;2023-05-07T12:25:34;22.5;57.3
80192;SHT31;69513;51.990;5.704;2023-05-07T12:28:08;22.6;57.5
80192;SHT31;69513;51.990;5.704;2023-05-07T12:30:47;22.6;58.2
80192;SHT31;69513;51.990;5.704;2023-05-07T12:33:24;22.6;56.9
80192;SHT31;69513;51.990;5.704;2023-05-07T12:35:56;22.7;56.0
80192;SHT31;69513;51.990;5.704;2023-05-07T12:38:25;22.7;54.5
80192;SHT31;69513;51.990;5.704;2023-05-07T12:40:56;22.8;58.1
80192;SHT31;69513;51.990;5.704;2023-05-07T12:43:28;22.9;56.4
80192;SHT31;69513;51.990;5.704;2023-05-07T12:46:01;22.9;56.7
80192;SHT31;69513;51.990;5.704;2023-05-07T12:48:36;23.0;56.9
80192;SHT31;69513;51.990;5.704;2023-05-07T12:51:07;23.1;56.2
80192;SHT31;69513;51.990;5.704;2023-05-07T12:53:42;23.2;55.8
80192;SHT31;69513;51.990;5.704;2023-05-07T12:56:15;23.2;54.9
80192;SHT31;69513;51.990;5.704;2023-05-07T12:58:45;23.3;56.3
80192;SHT31;69513;51.990;5.704;2023-05-07T13:01:19;23.4;56.3
80192;SHT31;69513;51.990;5.704;2023-05-07T13:03:51;23.5;55.0
80192;SHT31;69513;51.990;5.704;2023-05-07T13:06:20;23.5;56.2
80192;SHT31;69513;51.990;5.704;2023-05-07T13:08:52;23.6;55.1
80192;SHT31;69513;51.990;5.704;2023-05-07T13:11:25;23.7;54.2
80192;SHT31;69513;51.990;5.704;2023-05-07T13:13:54;23.7;53.4
80192;SHT31;69513;51.990;5.704;2023-05-07T13:16:23;23.8;53.2
80192;SHT31;69513;51.990;5.704;2023-05-07T13:18:53;23.8;52.2
80192;SHT31;69513;51.990;5.704;2023-05-07T13:21:22;23.8;52.9
80192;SHT31;69513;51.990;5.704;2023-05-07T13:23:53;23.9;53.2
80192;SHT31;69513;51.990;5.704;2023-05-07T13:26:22;23.9;52.8
80192;SHT31;69513;51.990;5.704;2023-05-07T13:28:53;23.9;53.0
80192;SHT31;69513;51.990;5.704;2023-05-07T13:31:25;23.9;51.6
80192;SHT31;69513;51.990;5.704;2023-05-07T13:33:56;23.9;51.6
80192;SHT31;69513;51.990;5.704;2023-05-07T13:36:27;23.9;51.2
80192;SHT31;69513;51.990;5.704;2023-05-07T13:38:56;24.0;49.3
80192;SHT31;69513;51.990;5.704;2023-05-07T13:41:28;24.0;51.0
80192;SHT31;69513;51.990;5.704;2023-05-07T13:43:57;24.1;50.5
80192;SHT31;69513;51.990;5.704;2023-05-07T13:46:27;24.1;51.2
80192;SHT31;69513;51.990;5.704;2023-05-07T13:48:57;24.2;51.5
80192;SHT31;69513;51.990;5.704;2023-05-07T13:51:29;24.3;51.2
80192;SHT31;69513;51.990;5.704;2023-05-07T13:53:59;24.4;50.7
80192;SHT31;69513;51.990;5.704;2023-05-07T13:56:29;24.5;51.7
80192;SHT31;69513;51.990;5.704;2023-05-07T13:58:59;24.6;51.6
80192;SHT31;69513;51.990;5.704;2023-05-07T14:01:33;24.6;50.9
80192;SHT31;69513;51.990;5.704;2023-05-07T14:04:04;24.7;49.1
80192;SHT31;69513;51.990;5.704;2023-05-07T14:06:34;24.7;48.2
80192;SHT31;69513;51.990;5.704;2023-05-07T14:09:08;24.8;48.8
80192;SHT31;69513;51.990;5.704;2023-05-07T14:11:42;24.8;50.2
80192;SHT31;69513;51.990;5.704;2023-05-07T14:14:15;24.9;49.9
80192;SHT31;69513;51.990;5.704;2023-05-07T14:16:52;24.9;48.7
80192;SHT31;69513;51.990;5.704;2023-05-07T14:19:23;24.9;50.5
80192;SHT31;69513;51.990;5.704;2023-05-07T14:21:58;24.9;49.8
80192;SHT31;69513;51.990;5.704;2023-05-07T14:24:38;24.9;49.5
80192;SHT31;69513;51.990;5.704;2023-05-07T14:27:22;25.0;50.2
80192;SHT31;69513;51.990;5.704;2023-05-07T14:29:51;25.0;50.3
80192;SHT31;69513;51.990;5.704;2023-05-07T14:32:22;25.0;50.4
80192;SHT31;69513;51.990;5.704;2023-05-07T14:34:59;25.0;49.7
80192;SHT31;69513;51.990;5.704;2023-05-07T14:37:35;25.0;49.8
80192;SHT31;69513;51.990;5.704;2023-05-07T14:40:13;25.0;49.2
80192;SHT31;69513;51.990;5.704;2023-05-07T14:42:47;25.0;49.6
80192;SHT31;69513;51.990;5.704;2023-05-07T14:45:23;25.0;50.3
80192;SHT31;69513;51.990;5.704;2023-05-07T14:47:55;25.0;50.0
80192;SHT31;69513;51.990;5.704;2023-05-07T14:50:26;25.0;49.2
80192;SHT31;69513;51.990;5.704;2023-05-07T14:52:55;25.0;49.8
80192;SHT31;69513;51.990;5.704;2023-05-07T14:55:26;25.0;49.7
80192;SHT31;69513;51.990;5.704;2023-05-07T15:01:02;25.0;49.2
80192;SHT31;69513;51.990;5.704;2023-05-07T15:06:25;25.0;50.7
80192;SHT31;69513;51.990;5.704;2023-05-07T15:08:59;25.0;50.4
80192;SHT31;69513;51.990;5.704;2023-05-07T15:11:34;25.1;49.4
80192;SHT31;69513;51.990;5.704;2023-05-07T15:14:06;25.1;49.5
80192;SHT31;69513;51.990;5.704;2023-05-07T15:16:42;25.1;49.4
80192;SHT31;69513;51.990;5.704;2023-05-07T15:19:17;25.1;49.1
80192;SHT31;69513;51.990;5.704;2023-05-07T15:21:48;25.1;49.3
80192;SHT31;69513;51.990;5.704;2023-05-07T15:24:34;25.1;48.7
80192;SHT31;69513;51.990;5.704;2023-05-07T15:27:06;25.1;49.1
80192;SHT31;69513;51.990;5.704;2023-05-07T15:33:41;25.0;46.0
80192;SHT31;69513;51.990;5.704;2023-05-07T15:36:13;24.8;46.5
80192;SHT31;69513;51.990;5.704;2023-05-07T15:38:46;24.6;47.0
80192;SHT31;69513;51.990;5.704;2023-05-07T15:41:16;24.5;47.0
80192;SHT31;69513;51.990;5.704;2023-05-07T15:43:49;24.3;47.2
80192;SHT31;69513;51.990;5.704;2023-05-07T15:46:22;24.2;47.6
80192;SHT31;69513;51.990;5.704;2023-05-07T15:48:54;24.0;47.6
80192;SHT31;69513;51.990;5.704;2023-05-07T15:51:28;23.9;48.2
80192;SHT31;69513;51.990;5.704;2023-05-07T15:54:03;23.7;49.7
80192;SHT31;69513;51.990;5.704;2023-05-07T15:56:35;23.5;53.0
80192;SHT31;69513;51.990;5.704;2023-05-07T15:59:05;23.3;54.3
80192;SHT31;69513;51.990;5.704;2023-05-07T16:01:36;23.1;55.8
80192;SHT31;69513;51.990;5.704;2023-05-07T16:04:09;22.8;55.9
80192;SHT31;69513;51.990;5.704;2023-05-07T16:06:40;22.6;57.5
80192;SHT31;69513;51.990;5.704;2023-05-07T16:09:15;22.5;58.4
80192;SHT31;69513;51.990;5.704;2023-05-07T16:11:47;22.3;58.9
80192;SHT31;69513;51.990;5.704;2023-05-07T16:14:17;22.2;59.5
80192;SHT31;69513;51.990;5.704;2023-05-07T16:16:52;22.1;60.3
80192;SHT31;69513;51.990;5.704;2023-05-07T16:19:24;22.0;60.5
80192;SHT31;69513;51.990;5.704;2023-05-07T16:21:53;21.9;60.0
80192;SHT31;69513;51.990;5.704;2023-05-07T16:24:25;21.8;59.8
80192;SHT31;69513;51.990;5.704;2023-05-07T16:26:54;21.6;59.9
80192;SHT31;69513;51.990;5.704;2023-05-07T16:29:24;21.5;61.0
80192;SHT31;69513;51.990;5.704;2023-05-07T16:31:56;21.4;61.9
80192;SHT31;69513;51.990;5.704;2023-05-07T16:34:27;21.3;62.6
80192;SHT31;69513;51.990;5.704;2023-05-07T16:36:56;21.2;62.8
80192;SHT31;69513;51.990;5.704;2023-05-07T16:39:26;21.1;63.2
80192;SHT31;69513;51.990;5.704;2023-05-07T16:41:55;21.1;63.6
80192;SHT31;69513;51.990;5.704;2023-05-07T16:44:27;21.0;63.5
80192;SHT31;69513;51.990;5.704;2023-05-07T16:46:58;20.9;63.3
80192;SHT31;69513;51.990;5.704;2023-05-07T16:49:29;20.8;63.6
80192;SHT31;69513;51.990;5.704;2023-05-07T16:51:58;20.8;63.3
80192;SHT31;69513;51.990;5.704;2023-05-07T16:54:29;20.7;63.4
80192;SHT31;69513;51.990;5.704;2023-05-07T16:56:59;20.6;63.5
80192;SHT31;69513;51.990;5.704;2023-05-07T16:59:29;20.6;63.8
80192;SHT31;69513;51.990;5.704;2023-05-07T17:02:00;20.5;62.7
80192;SHT31;69513;51.990;5.704;2023-05-07T17:04:30;20.5;63.7
80192;SHT31;69513;51.990;5.704;2023-05-07T17:07:03;20.4;63.6
80192;SHT31;69513;51.990;5.704;2023-05-07T17:09:34;20.3;64.8
80192;SHT31;69513;51.990;5.704;2023-05-07T17:12:06;20.3;65.4
80192;SHT31;69513;51.990;5.704;2023-05-07T17:14:35;20.2;64.8
80192;SHT31;69513;51.990;5.704;2023-05-07T17:17:07;20.2;64.5
80192;SHT31;69513;51.990;5.704;2023-05-07T17:19:37;20.2;64.8
80192;SHT31;69513;51.990;5.704;2023-05-07T17:22:07;20.1;64.7
80192;SHT31;69513;51.990;5.704;2023-05-07T17:24:36;20.1;65.2
80192;SHT31;69513;51.990;5.704;2023-05-07T17:27:06;20.1;65.8
80192;SHT31;69513;51.990;5.704;2023-05-07T17:29:36;20.0;65.8
80192;SHT31;69513;51.990;5.704;2023-05-07T17:32:07;20.0;65.8
80192;SHT31;69513;51.990;5.704;2023-05-07T17:34:37;20.0;65.5
80192;SHT31;69513;51.990;5.704;2023-05-07T17:37:08;20.0;65.4
80192;SHT31;69513;51.990;5.704;2023-05-07T17:39:38;19.9;65.9
80192;SHT31;69513;51.990;5.704;2023-05-07T17:42:08;19.9;66.6
80192;SHT31;69513;51.990;5.704;2023-05-07T17:44:39;19.9;65.8
80192;SHT31;69513;51.990;5.704;2023-05-07T17:47:11;19.8;65.9
80192;SHT31;69513;51.990;5.704;2023-05-07T17:49:43;19.8;66.8
80192;SHT31;69513;51.990;5.704;2023-05-07T17:52:12;19.8;66.7
80192;SHT31;69513;51.990;5.704;2023-05-07T17:54:42;19.7;66.4
80192;SHT31;69513;51.990;5.704;2023-05-07T17:57:12;19.7;66.7
80192;SHT31;69513;51.990;5.704;2023-05-07T17:59:42;19.7;67.1
80192;SHT31;69513;51.990;5.704;2023-05-07T18:02:11;19.6;67.6
80192;SHT31;69513;51.990;5.704;2023-05-07T18:04:43;19.6;66.8
80192;SHT31;69513;51.990;5.704;2023-05-07T18:07:12;19.6;67.8
80192;SHT31;69513;51.990;5.704;2023-05-07T18:09:42;19.6;67.0
80192;SHT31;69513;51.990;5.704;2023-05-07T18:12:12;19.6;67.7
80192;SHT31;69513;51.990;5.704;2023-05-07T18:14:42;19.6;67.8
80192;SHT31;69513;51.990;5.704;2023-05-07T18:17:15;19.5;67.7
80192;SHT31;69513;51.990;5.704;2023-05-07T18:19:48;19.5;67.4
80192;SHT31;69513;51.990;5.704;2023-05-07T18:22:17;19.5;67.8
80192;SHT31;69513;51.990;5.704;2023-05-07T18:24:48;19.5;67.8
80192;SHT31;69513;51.990;5.704;2023-05-07T18:27:21;19.5;67.6
80192;SHT31;69513;51.990;5.704;2023-05-07T18:29:51;19.5;67.3
80192;SHT31;69513;51.990;5.704;2023-05-07T18:32:20;19.5;67.5
80192;SHT31;69513;51.990;5.704;2023-05-07T18:34:52;19.4;67.6
80192;SHT31;69513;51.990;5.704;2023-05-07T18:37:23;19.4;67.3